Time;durP1;ratioP1;P1;durP2;ratioP2;P2;SDS_P1;SDS_P2;PMS_P1;PMS_P2;Temp;Humidity;BMP_temperature;BMP_pressure;BME280_temperature;BME280_humidity;BME280_pressure;Samples;Min_cycle;Max_cycle;Signal;HPM_P1;HPM_P2
2021/05/15 00:00:38;;;;;;;4.80;2.00;;;10.60;99.90;;;;;;5122805;28;20422;-83
2021/05/15 00:03:05;;;;;;;3.13;2.30;;;10.50;99.90;;;;;;5141930;27;20397;-83
2021/05/15 00:05:31;;;;;;;2.10;1.90;;;10.50;99.90;;;;;;5140825;27;20398;-82
2021/05/15 00:07:59;;;;;;;3.13;2.33;;;10.60;99.90;;;;;;5138518;27;20422;-83
2021/05/15 00:10:25;;;;;;;2.47;2.27;;;10.50;99.90;;;;;;5120049;27;20570;-82
2021/05/15 00:12:51;;;;;;;8.87;2.30;;;10.50;99.90;;;;;;5138476;27;20934;-83
2021/05/15 00:15:18;;;;;;;2.77;2.27;;;10.50;99.90;;;;;;5138330;27;20242;-83
2021/05/15 00:17:44;;;;;;;4.50;2.07;;;10.40;99.90;;;;;;5138104;27;20566;-82
2021/05/15 00:20:13;;;;;;;2.10;2.00;;;10.30;99.90;;;;;;5138176;27;20399;-83
2021/05/15 00:22:40;;;;;;;2.53;2.30;;;10.10;99.90;;;;;;5138281;27;20390;-82
2021/05/15 00:25:07;;;;;;;4.97;2.37;;;9.90;99.90;;;;;;5139302;27;20834;-82
2021/05/15 00:27:34;;;;;;;7.27;2.63;;;10.00;99.90;;;;;;5139861;28;20778;-83
2021/05/15 00:29:59;;;;;;;2.03;1.93;;;10.00;99.90;;;;;;5139309;28;20408;-82
2021/05/15 00:32:26;;;;;;;2.20;1.97;;;9.80;99.90;;;;;;5094842;28;20877;-81
2021/05/15 00:34:51;;;;;;;5.30;3.20;;;9.70;99.90;;;;;;5095336;28;20186;-82
2021/05/15 00:37:18;;;;;;;2.00;1.90;;;9.70;99.90;;;;;;5095721;28;20397;-82
2021/05/15 00:39:44;;;;;;;7.90;2.30;;;9.80;99.90;;;;;;5078406;28;20560;-82
2021/05/15 00:42:11;;;;;;;2.73;2.33;;;9.90;99.90;;;;;;5079433;28;20924;-82
2021/05/15 00:47:17;;;;;;;3.03;2.27;;;10.10;99.90;;;;;;5094861;28;20409;-82
2021/05/15 00:49:45;;;;;;;3.40;3.10;;;9.80;99.90;;;;;;5095354;28;20381;-82
2021/05/15 00:52:11;;;;;;;2.37;2.17;;;9.80;99.90;;;;;;5095265;28;20462;-82
2021/05/15 00:54:41;;;;;;;2.90;2.10;;;10.00;99.90;;;;;;5095626;28;20392;-82
2021/05/15 00:57:08;;;;;;;2.60;2.40;;;9.90;99.90;;;;;;5095206;28;20479;-82
2021/05/15 00:59:36;;;;;;;2.30;2.00;;;9.70;99.90;;;;;;5095498;28;20389;-82
2021/05/15 01:02:17;;;;;;;6.40;3.37;;;9.70;99.90;;;;;;5095390;28;20741;-82
2021/05/15 01:04:44;;;;;;;2.53;2.33;;;9.80;99.90;;;;;;5138482;28;20734;-82
2021/05/15 01:07:10;;;;;;;1.70;1.60;;;9.70;99.90;;;;;;5138803;28;20424;-82
2021/05/15 01:09:37;;;;;;;2.17;1.97;;;9.50;99.90;;;;;;5138552;28;20395;-83
2021/05/15 01:12:05;;;;;;;3.07;1.90;;;9.40;99.90;;;;;;5138355;28;20426;-82
2021/05/15 01:14:33;;;;;;;1.83;1.73;;;9.40;99.90;;;;;;5138179;28;20697;-81
2021/05/15 01:16:59;;;;;;;1.90;1.80;;;9.70;99.90;;;;;;5121562;28;20387;-81
2021/05/15 01:19:27;;;;;;;1.87;1.77;;;9.40;99.90;;;;;;5145096;28;20395;-83
2021/05/15 01:21:54;;;;;;;3.43;1.93;;;9.70;99.90;;;;;;5150931;28;20394;-79
2021/05/15 01:24:20;;;;;;;2.37;2.10;;;9.60;99.90;;;;;;5139283;28;20395;-82
2021/05/15 01:26:46;;;;;;;2.07;1.97;;;9.50;99.90;;;;;;5140298;28;20776;-81
2021/05/15 01:29:13;;;;;;;1.87;1.77;;;9.60;99.90;;;;;;5139985;28;20404;-83
2021/05/15 01:31:39;;;;;;;2.80;2.60;;;9.70;99.90;;;;;;5141676;27;20477;-82
2021/05/15 01:34:07;;;;;;;2.57;2.30;;;9.60;99.90;;;;;;5123354;27;20391;-83
2021/05/15 01:36:40;;;;;;;2.03;1.93;;;9.50;99.90;;;;;;5124030;27;20399;-83
2021/05/15 01:39:08;;;;;;;2.20;2.00;;;9.60;99.90;;;;;;5142868;27;20455;-83
2021/05/15 01:41:34;;;;;;;1.90;1.80;;;9.60;99.90;;;;;;5143441;27;20395;-82
2021/05/15 01:44:00;;;;;;;2.50;2.20;;;9.30;99.90;;;;;;5142992;27;20394;-81
2021/05/15 01:46:27;;;;;;;4.37;2.50;;;9.40;99.90;;;;;;5140671;27;20455;-83
2021/05/15 01:48:53;;;;;;;2.73;2.40;;;9.40;99.90;;;;;;5141270;27;20391;-82
2021/05/15 01:51:19;;;;;;;3.53;2.40;;;9.60;99.90;;;;;;5141419;27;20503;-82
2021/05/15 01:53:48;;;;;;;2.10;2.00;;;9.70;99.90;;;;;;5141125;27;20169;-83
2021/05/15 01:56:32;;;;;;;2.53;2.33;;;9.70;99.90;;;;;;5122640;27;20396;-82
2021/05/15 01:58:59;;;;;;;2.20;2.00;;;9.70;99.90;;;;;;5140672;27;20439;-82
2021/05/15 02:01:26;;;;;;;2.10;1.90;;;9.60;99.90;;;;;;5140918;27;20391;-83
2021/05/15 02:03:52;;;;;;;5.13;2.20;;;9.70;99.90;;;;;;5122967;27;20395;-83
2021/05/15 02:06:19;;;;;;;3.63;2.10;;;9.70;99.90;;;;;;5141322;27;20396;-82
2021/05/15 02:08:46;;;;;;;4.27;2.13;;;9.80;99.90;;;;;;5140947;27;20414;-83
2021/05/15 02:11:15;;;;;;;2.73;2.53;;;9.80;99.90;;;;;;5122089;27;20498;-80
2021/05/15 02:13:43;;;;;;;3.30;2.80;;;9.70;99.90;;;;;;5121845;27;20436;-82
2021/05/15 02:16:10;;;;;;;2.60;2.40;;;10.00;99.90;;;;;;5139894;27;20394;-80
2021/05/15 02:18:36;;;;;;;4.07;2.23;;;9.80;99.90;;;;;;5121673;27;20866;-82
2021/05/15 02:21:02;;;;;;;2.40;2.20;;;9.80;99.90;;;;;;5140373;27;20395;-83
2021/05/15 02:23:28;;;;;;;3.00;2.80;;;9.70;99.90;;;;;;5140055;27;20743;-83
2021/05/15 02:25:54;;;;;;;9.40;3.40;;;9.70;99.90;;;;;;5140010;27;20427;-83
2021/05/15 02:28:20;;;;;;;2.10;1.90;;;9.80;99.90;;;;;;5140578;27;20578;-79
2021/05/15 02:30:47;;;;;;;4.80;2.33;;;9.70;99.90;;;;;;5140977;27;20435;-83
2021/05/15 02:33:13;;;;;;;2.03;1.93;;;9.70;99.90;;;;;;5140568;27;20383;-83
2021/05/15 02:35:40;;;;;;;2.27;2.07;;;9.70;99.90;;;;;;5121413;27;20407;-82
2021/05/15 02:38:10;;;;;;;2.43;2.23;;;9.70;99.90;;;;;;5140538;27;20384;-82
2021/05/15 02:40:36;;;;;;;2.10;2.00;;;9.80;99.90;;;;;;5140181;27;20398;-81
2021/05/15 02:43:02;;;;;;;3.47;2.10;;;9.90;99.90;;;;;;5139676;27;20397;-82
2021/05/15 02:45:28;;;;;;;2.13;1.90;;;10.10;99.90;;;;;;5139729;27;20537;-82
2021/05/15 02:47:54;;;;;;;2.30;2.10;;;10.30;99.90;;;;;;5140352;27;20586;-82
2021/05/15 02:50:21;;;;;;;2.40;2.10;;;10.40;99.90;;;;;;5140473;27;20193;-82
2021/05/15 02:52:48;;;;;;;2.10;1.90;;;10.50;99.90;;;;;;5140044;27;20854;-82
2021/05/15 02:55:17;;;;;;;1.87;1.77;;;10.60;99.90;;;;;;5140078;27;20384;-83
2021/05/15 02:57:44;;;;;;;2.30;1.60;;;10.60;99.90;;;;;;5122016;27;20383;-82
2021/05/15 03:00:14;;;;;;;11.23;2.03;;;10.20;99.90;;;;;;5140693;27;20403;-82
2021/05/15 03:02:40;;;;;;;2.47;2.27;;;10.30;99.90;;;;;;5141141;27;20391;-82
2021/05/15 03:05:09;;;;;;;2.83;1.90;;;10.20;99.90;;;;;;5122163;27;20406;-83
2021/05/15 03:07:35;;;;;;;2.45;1.85;;;10.40;99.90;;;;;;5140064;27;20890;-82
2021/05/15 03:10:00;;;;;;;1.63;1.53;;;10.50;99.90;;;;;;5142224;27;20165;-83
2021/05/15 03:12:26;;;;;;;2.10;1.90;;;10.40;99.90;;;;;;5142860;27;20398;-83
2021/05/15 03:14:52;;;;;;;4.20;2.00;;;10.50;99.90;;;;;;5142822;27;20625;-83
2021/05/15 03:17:18;;;;;;;2.70;1.93;;;10.60;99.90;;;;;;5139868;27;20185;-82
2021/05/15 03:19:44;;;;;;;1.73;1.63;;;10.30;99.90;;;;;;5140410;27;20165;-83
2021/05/15 03:22:09;;;;;;;1.73;1.63;;;10.30;99.90;;;;;;5140429;27;20175;-82
2021/05/15 03:24:35;;;;;;;2.33;1.97;;;10.30;99.90;;;;;;5139645;27;20172;-82
2021/05/15 03:27:01;;;;;;;3.30;1.77;;;10.20;99.90;;;;;;5139985;27;20165;-82
2021/05/15 03:29:27;;;;;;;3.10;1.80;;;10.30;99.90;;;;;;5141078;27;20253;-83
2021/05/15 03:31:53;;;;;;;2.87;2.23;;;10.30;99.90;;;;;;5140213;27;20280;-83
2021/05/15 03:34:19;;;;;;;3.90;1.97;;;10.40;99.90;;;;;;5139797;27;20240;-82
2021/05/15 03:36:45;;;;;;;1.90;1.80;;;10.20;99.90;;;;;;5140287;27;20395;-83
2021/05/15 03:39:18;;;;;;;1.77;1.67;;;10.20;99.90;;;;;;5143342;27;20391;-82
2021/05/15 03:41:45;;;;;;;1.83;1.73;;;10.30;99.90;;;;;;5122525;27;20658;-83
2021/05/15 03:44:11;;;;;;;1.87;1.77;;;10.40;99.90;;;;;;5140864;27;20399;-83
2021/05/15 03:46:37;;;;;;;2.43;2.23;;;10.40;99.90;;;;;;5139255;27;20923;-81
2021/05/15 03:49:03;;;;;;;2.50;2.30;;;10.50;99.90;;;;;;5138739;27;20176;-82
2021/05/15 03:51:29;;;;;;;6.20;2.60;;;10.60;99.90;;;;;;5139469;27;20201;-82
2021/05/15 03:53:55;;;;;;;2.40;2.13;;;10.60;99.90;;;;;;5138985;27;20387;-82
2021/05/15 03:56:21;;;;;;;2.07;1.87;;;10.70;99.90;;;;;;5138785;27;20422;-82
2021/05/15 03:58:47;;;;;;;1.70;1.60;;;10.70;99.90;;;;;;5138485;27;20383;-82
2021/05/15 04:01:13;;;;;;;5.07;2.97;;;10.50;99.90;;;;;;5138918;27;20582;-82
2021/05/15 04:03:39;;;;;;;1.83;1.73;;;10.80;99.90;;;;;;5138550;27;20161;-82
2021/05/15 04:06:04;;;;;;;3.30;1.70;;;10.90;99.90;;;;;;5138953;27;20158;-82
2021/05/15 04:08:30;;;;;;;2.10;2.00;;;10.70;99.90;;;;;;5120865;27;20189;-82
2021/05/15 04:10:56;;;;;;;1.67;1.57;;;10.80;99.90;;;;;;5139179;27;20426;-82
2021/05/15 04:13:31;;;;;;;2.00;1.87;;;10.80;99.90;;;;;;5138744;27;20554;-82
2021/05/15 04:16:02;;;;;;;9.70;2.30;;;10.50;99.90;;;;;;5095093;28;20219;-82
2021/05/15 04:18:30;;;;;;;2.13;1.93;;;10.60;99.90;;;;;;5095121;28;20412;-82
2021/05/15 04:20:56;;;;;;;2.67;1.80;;;10.40;99.90;;;;;;5095467;28;20406;-82
2021/05/15 04:23:23;;;;;;;2.57;1.93;;;10.60;99.90;;;;;;5078561;28;20411;-82
2021/05/15 04:25:49;;;;;;;3.17;1.87;;;10.70;99.90;;;;;;5095442;28;20411;-83
2021/05/15 04:28:16;;;;;;;3.37;1.33;;;10.70;99.90;;;;;;5099387;28;20385;-82
2021/05/15 04:30:43;;;;;;;3.83;1.87;;;10.60;99.90;;;;;;5106875;28;20577;-82
2021/05/15 04:33:09;;;;;;;2.77;2.13;;;10.80;99.90;;;;;;5110082;28;20396;-82
2021/05/15 04:35:34;;;;;;;2.00;1.90;;;10.70;99.90;;;;;;5112172;28;20405;-81
2021/05/15 04:38:02;;;;;;;3.80;1.40;;;10.40;99.90;;;;;;5114313;28;20389;-82
2021/05/15 04:40:29;;;;;;;4.13;2.33;;;10.30;99.90;;;;;;5114485;28;20194;-82
2021/05/15 04:42:56;;;;;;;1.70;1.60;;;10.40;99.90;;;;;;5094867;28;20396;-82
2021/05/15 04:45:22;;;;;;;1.57;1.40;;;10.60;99.90;;;;;;5112001;28;20448;-82
2021/05/15 04:47:49;;;;;;;1.63;1.30;;;10.50;99.90;;;;;;5149222;28;20414;-82
2021/05/15 04:50:15;;;;;;;12.87;2.90;;;10.60;99.90;;;;;;5133299;28;20505;-82
2021/05/15 04:52:41;;;;;;;1.87;1.77;;;10.40;99.90;;;;;;5152136;28;20482;-82
2021/05/15 04:55:07;;;;;;;1.30;1.20;;;10.60;99.90;;;;;;5154728;28;20455;-82
2021/05/15 04:57:33;;;;;;;3.37;1.87;;;10.50;99.90;;;;;;5154575;28;20217;-82
2021/05/15 04:59:59;;;;;;;1.83;1.73;;;10.50;99.90;;;;;;5155570;28;20420;-82
2021/05/15 05:02:25;;;;;;;1.73;1.60;;;10.60;99.90;;;;;;5120024;28;20395;-82
2021/05/15 05:04:51;;;;;;;1.80;1.70;;;10.60;99.90;;;;;;5154058;27;20404;-80
2021/05/15 05:07:17;;;;;;;1.60;1.50;;;10.60;99.90;;;;;;5154828;27;20183;-81
2021/05/15 05:09:43;;;;;;;4.50;1.80;;;10.60;99.90;;;;;;5154108;27;20418;-80
2021/05/15 05:12:09;;;;;;;1.70;1.43;;;10.60;99.90;;;;;;5156786;27;20441;-80
2021/05/15 05:14:37;;;;;;;2.37;1.53;;;10.60;99.90;;;;;;5156761;27;20158;-79
2021/05/15 05:17:04;;;;;;;2.27;1.97;;;10.50;99.90;;;;;;5155967;27;20398;-80
2021/05/15 05:19:30;;;;;;;1.77;1.60;;;10.50;99.90;;;;;;5154912;27;20407;-80
2021/05/15 05:21:56;;;;;;;2.50;1.47;;;10.40;99.90;;;;;;5153936;27;20925;-79
2021/05/15 05:24:22;;;;;;;1.80;1.70;;;10.50;99.90;;;;;;5153378;27;20234;-79
2021/05/15 05:26:47;;;;;;;2.57;1.80;;;10.50;99.90;;;;;;5153257;27;20399;-79
2021/05/15 05:29:13;;;;;;;2.27;1.60;;;10.30;99.90;;;;;;5134564;27;20161;-82
2021/05/15 05:31:41;;;;;;;3.40;1.80;;;10.40;99.90;;;;;;5153752;27;20189;-83
2021/05/15 05:34:08;;;;;;;3.70;1.80;;;10.60;99.90;;;;;;5161612;27;20165;-83
2021/05/15 05:36:35;;;;;;;5.10;1.90;;;10.60;99.90;;;;;;5142762;27;20405;-81
2021/05/15 05:39:04;;;;;;;2.50;1.97;;;10.60;99.90;;;;;;5141890;27;20406;-80
2021/05/15 05:41:30;;;;;;;1.83;1.73;;;10.70;99.90;;;;;;5143067;27;20390;-80
2021/05/15 05:43:56;;;;;;;2.27;2.17;;;10.80;99.90;;;;;;5158834;27;20384;-82
2021/05/15 05:46:22;;;;;;;1.80;1.70;;;10.90;99.90;;;;;;5155920;27;20454;-82
2021/05/15 05:48:48;;;;;;;1.60;1.50;;;10.90;99.90;;;;;;5156324;27;20245;-82
2021/05/15 05:51:14;;;;;;;1.50;1.40;;;10.90;99.90;;;;;;5157054;27;20208;-82
2021/05/15 05:53:40;;;;;;;1.30;1.20;;;11.00;99.90;;;;;;5158406;27;20414;-81
2021/05/15 05:56:06;;;;;;;1.83;1.73;;;11.30;99.90;;;;;;5142076;27;20422;-80
2021/05/15 05:58:32;;;;;;;1.73;1.63;;;11.60;99.90;;;;;;5124225;27;20177;-81
2021/05/15 06:00:58;;;;;;;1.90;1.80;;;11.40;99.90;;;;;;5142259;27;20399;-82
2021/05/15 06:03:25;;;;;;;1.50;1.40;;;11.60;99.90;;;;;;5159978;27;20402;-82
2021/05/15 06:05:50;;;;;;;6.70;1.73;;;11.80;99.90;;;;;;5141675;27;20403;-82
2021/05/15 06:08:18;;;;;;;2.40;1.73;;;11.90;99.90;;;;;;5159725;27;20495;-82
2021/05/15 06:10:44;;;;;;;1.80;1.63;;;12.10;99.90;;;;;;5158680;27;20154;-82
2021/05/15 06:13:10;;;;;;;2.00;1.80;;;12.20;99.90;;;;;;5159765;27;20396;-82
2021/05/15 06:15:37;;;;;;;1.70;1.60;;;12.00;99.90;;;;;;5160674;27;20160;-82
2021/05/15 06:18:04;;;;;;;2.73;1.83;;;12.10;99.90;;;;;;5142011;27;20417;-82
2021/05/15 06:20:30;;;;;;;3.23;1.60;;;12.30;99.90;;;;;;5141748;27;20446;-82
2021/05/15 06:22:56;;;;;;;3.17;1.43;;;12.30;99.90;;;;;;5159876;27;20399;-82
2021/05/15 06:25:23;;;;;;;1.80;1.70;;;12.10;99.90;;;;;;5156262;27;20456;-83
2021/05/15 06:27:49;;;;;;;1.70;1.60;;;12.00;99.90;;;;;;5157678;27;20169;-80
2021/05/15 06:30:15;;;;;;;2.10;1.93;;;12.20;99.90;;;;;;5158840;27;20391;-83
2021/05/15 06:32:42;;;;;;;3.80;1.70;;;12.10;99.90;;;;;;5159935;27;20399;-82
2021/05/15 06:35:08;;;;;;;2.30;2.07;;;12.10;99.90;;;;;;5160435;27;20391;-82
2021/05/15 06:37:34;;;;;;;1.60;1.37;;;12.30;99.90;;;;;;5141903;27;20420;-82
2021/05/15 06:40:00;;;;;;;3.70;2.13;;;12.30;99.90;;;;;;5160233;27;20419;-82
2021/05/15 06:42:28;;;;;;;1.70;1.60;;;12.20;99.90;;;;;;5158076;27;20157;-82
2021/05/15 06:44:57;;;;;;;2.37;1.50;;;12.40;99.90;;;;;;5114356;27;20157;-82
2021/05/15 06:47:25;;;;;;;1.60;1.43;;;12.50;99.90;;;;;;5112353;27;20379;-83
2021/05/15 06:49:51;;;;;;;2.70;1.67;;;12.30;99.90;;;;;;5132474;27;20414;-83
2021/05/15 06:52:18;;;;;;;1.90;1.50;;;12.60;99.90;;;;;;5156474;27;20399;-82
2021/05/15 06:54:49;;;;;;;1.50;1.40;;;12.90;99.90;;;;;;5154869;27;20162;-83
2021/05/15 06:57:19;;;;;;;2.80;1.40;;;12.90;99.90;;;;;;5088764;28;20400;-82
2021/05/15 06:59:46;;;;;;;2.47;2.10;;;12.80;99.90;;;;;;5068335;28;20509;-83
2021/05/15 07:02:12;;;;;;;1.87;1.77;;;12.80;99.90;;;;;;5088989;28;20437;-83
2021/05/15 07:04:38;;;;;;;1.60;1.47;;;13.00;99.90;;;;;;5072171;28;20469;-82
2021/05/15 07:07:20;;;;;;;1.60;1.50;;;13.00;99.90;;;;;;5087259;28;20406;-82
2021/05/15 07:09:53;;;;;;;1.60;1.50;;;13.10;99.90;;;;;;5070856;28;20720;-83
2021/05/15 07:12:21;;;;;;;2.23;1.90;;;13.10;99.90;;;;;;5022121;28;20421;-82
2021/05/15 07:14:48;;;;;;;1.60;1.50;;;13.10;99.90;;;;;;5016356;28;20408;-82
2021/05/15 07:17:17;;;;;;;2.50;1.90;;;13.10;99.90;;;;;;5025469;28;20412;-83
2021/05/15 07:19:43;;;;;;;1.73;1.37;;;13.00;99.90;;;;;;4945773;29;20445;-81
2021/05/15 07:22:09;;;;;;;1.47;1.37;;;13.30;99.90;;;;;;4945856;29;20466;-81
2021/05/15 07:24:41;;;;;;;7.63;1.80;;;13.40;99.90;;;;;;4960552;29;20421;-83
2021/05/15 07:27:07;;;;;;;1.73;1.63;;;13.50;99.90;;;;;;4974227;28;20652;-79
2021/05/15 07:29:33;;;;;;;3.13;1.50;;;13.70;99.90;;;;;;5026749;28;20412;-83
2021/05/15 07:31:59;;;;;;;1.60;1.50;;;13.60;99.90;;;;;;5025851;28;20454;-82
2021/05/15 07:34:24;;;;;;;1.23;1.13;;;13.70;99.90;;;;;;5032868;28;20177;-80
2021/05/15 07:36:50;;;;;;;4.23;1.80;;;13.60;99.90;;;;;;5036970;28;20185;-81
2021/05/15 07:39:16;;;;;;;2.60;1.50;;;13.60;99.90;;;;;;5034550;28;20196;-82
2021/05/15 07:41:51;;;;;;;1.67;1.43;;;13.50;99.90;;;;;;5032188;28;20260;-81
2021/05/15 07:44:23;;;;;;;1.43;1.33;;;13.80;99.90;;;;;;5023149;28;20193;-81
2021/05/15 07:46:51;;;;;;;1.50;1.40;;;14.00;99.90;;;;;;5000748;28;20910;-82
2021/05/15 07:49:20;;;;;;;1.60;1.50;;;14.00;99.90;;;;;;5018268;28;20507;-81
2021/05/15 07:51:52;;;;;;;1.40;1.30;;;13.80;99.90;;;;;;5039456;28;20410;-81
2021/05/15 07:54:24;;;;;;;1.63;1.53;;;14.10;99.90;;;;;;5040696;28;20434;-80
2021/05/15 07:56:50;;;;;;;1.50;1.40;;;14.00;99.90;;;;;;5058448;28;20894;-80
2021/05/15 07:59:17;;;;;;;3.20;1.83;;;13.70;99.90;;;;;;5063678;28;20417;-81
2021/05/15 08:01:44;;;;;;;1.50;1.40;;;13.60;99.90;;;;;;5057305;28;20461;-81
2021/05/15 08:04:10;;;;;;;1.97;1.77;;;13.70;99.90;;;;;;5057194;28;20442;-81
2021/05/15 08:06:39;;;;;;;3.53;2.47;;;13.90;99.90;;;;;;5057131;28;20413;-82
2021/05/15 08:09:07;;;;;;;1.80;1.70;;;14.00;99.90;;;;;;4998258;28;20532;-81
2021/05/15 08:11:34;;;;;;;1.30;1.20;;;14.00;99.90;;;;;;4997487;28;20424;-82
2021/05/15 08:14:02;;;;;;;1.60;1.50;;;14.30;99.90;;;;;;4998866;28;20424;-82
2021/05/15 08:16:28;;;;;;;5.90;1.90;;;14.40;99.90;;;;;;5036168;28;20399;-81
2021/05/15 08:18:55;;;;;;;1.70;1.57;;;14.50;99.90;;;;;;5075670;28;20439;-81
2021/05/15 08:21:21;;;;;;;1.70;1.60;;;14.50;99.90;;;;;;5076730;28;20195;-81
2021/05/15 08:23:47;;;;;;;1.63;1.43;;;14.40;99.90;;;;;;5076632;28;20757;-81
2021/05/15 08:26:13;;;;;;;1.53;1.43;;;14.20;99.90;;;;;;5076269;28;20221;-81
2021/05/15 08:28:41;;;;;;;1.73;1.63;;;14.30;99.90;;;;;;5059199;28;20186;-81
2021/05/15 08:31:09;;;;;;;1.57;1.47;;;14.30;99.90;;;;;;5040511;28;20453;-81
2021/05/15 08:33:36;;;;;;;1.73;1.63;;;14.20;99.90;;;;;;5056819;28;20406;-81
2021/05/15 08:36:02;;;;;;;2.43;1.90;;;14.70;99.90;;;;;;5056730;28;20415;-81
2021/05/15 08:38:28;;;;;;;1.80;1.67;;;14.30;99.90;;;;;;5057158;28;20720;-81
2021/05/15 08:40:54;;;;;;;2.57;1.70;;;14.30;99.90;;;;;;5093551;28;20440;-82
2021/05/15 08:43:25;;;;;;;1.43;1.33;;;14.60;99.90;;;;;;5101442;28;20166;-82
2021/05/15 08:45:54;;;;;;;2.60;2.17;;;14.90;99.90;;;;;;5084215;28;20702;-82
2021/05/15 08:48:21;;;;;;;1.97;1.87;;;14.10;99.90;;;;;;5100515;28;20496;-81
2021/05/15 08:50:48;;;;;;;1.42;1.23;;;14.20;99.90;;;;;;5101549;28;20516;-82
2021/05/15 08:53:14;;;;;;;1.73;1.63;;;14.50;99.90;;;;;;5101117;28;20154;-82
2021/05/15 08:55:40;;;;;;;2.40;1.57;;;14.80;99.90;;;;;;5084397;28;20496;-83
2021/05/15 08:58:06;;;;;;;2.03;1.57;;;14.60;99.90;;;;;;5079408;28;20500;-82
2021/05/15 09:00:36;;;;;;;1.63;1.53;;;14.70;99.90;;;;;;5091282;28;20436;-82
2021/05/15 09:03:05;;;;;;;1.77;1.67;;;15.10;99.90;;;;;;5144348;27;20807;-82
2021/05/15 09:05:35;;;;;;;1.67;1.43;;;15.00;99.90;;;;;;5128214;27;20387;-82
2021/05/15 09:08:02;;;;;;;1.50;1.40;;;14.90;99.90;;;;;;5129528;27;20418;-84
2021/05/15 09:10:31;;;;;;;1.73;1.60;;;15.20;99.90;;;;;;5148803;27;20443;-82
2021/05/15 09:13:17;;;;;;;1.40;1.30;;;15.50;99.90;;;;;;5081625;27;20410;-84
2021/05/15 09:15:46;;;;;;;2.47;1.53;;;15.80;99.90;;;;;;5126894;27;20391;-83
2021/05/15 09:18:15;;;;;;;3.27;1.90;;;15.20;99.90;;;;;;5145266;27;20428;-83
2021/05/15 09:20:41;;;;;;;1.70;1.60;;;15.30;99.90;;;;;;5126368;27;20764;-83
2021/05/15 09:23:16;;;;;;;4.77;1.57;;;14.80;99.90;;;;;;5144862;27;20703;-83
2021/05/15 09:25:54;;;;;;;2.90;1.63;;;14.90;99.90;;;;;;5144902;27;20866;-82
2021/05/15 09:28:32;;;;;;;1.60;1.50;;;14.60;99.90;;;;;;5148110;27;20421;-82
2021/05/15 09:31:10;;;;;;;1.87;1.67;;;14.30;99.90;;;;;;5142930;27;20675;-83
2021/05/15 09:33:36;;;;;;;3.53;1.60;;;14.20;99.90;;;;;;5142129;27;20387;-83
2021/05/15 09:36:17;;;;;;;4.50;1.30;;;14.20;99.90;;;;;;5142101;27;20386;-83
2021/05/15 09:38:43;;;;;;;1.73;1.63;;;14.00;99.90;;;;;;5123672;27;20379;-83
2021/05/15 09:41:10;;;;;;;1.70;1.60;;;13.80;99.90;;;;;;5142521;27;20782;-82
2021/05/15 09:43:36;;;;;;;1.93;1.83;;;13.60;99.90;;;;;;5142253;27;20387;-82
2021/05/15 09:46:02;;;;;;;2.10;2.00;;;13.30;99.90;;;;;;5141066;27;20457;-82
2021/05/15 09:48:37;;;;;;;1.53;1.43;;;13.30;99.90;;;;;;5125303;27;20153;-83
2021/05/15 09:51:18;;;;;;;2.70;1.77;;;13.70;99.90;;;;;;5061781;28;20408;-82
2021/05/15 09:53:45;;;;;;;1.60;1.50;;;13.80;99.90;;;;;;5077787;28;20405;-83
2021/05/15 09:56:11;;;;;;;2.27;2.07;;;14.10;99.90;;;;;;5078071;28;20451;-83
2021/05/15 09:58:41;;;;;;;2.40;2.20;;;14.50;99.90;;;;;;5079670;28;20394;-83
2021/05/15 10:01:14;;;;;;;2.47;2.27;;;15.20;99.90;;;;;;5049448;28;20493;-83
2021/05/15 10:03:40;;;;;;;1.80;1.57;;;14.80;99.90;;;;;;5043359;28;20470;-83
2021/05/15 10:06:15;;;;;;;1.53;1.43;;;15.70;99.90;;;;;;5006921;28;20558;-83
2021/05/15 10:08:41;;;;;;;1.50;1.40;;;16.20;99.90;;;;;;5038864;28;20936;-83
2021/05/15 10:11:08;;;;;;;5.17;1.80;;;15.30;99.90;;;;;;5038327;28;21035;-83
2021/05/15 10:13:35;;;;;;;1.70;1.60;;;15.60;99.90;;;;;;5039115;28;20395;-83
2021/05/15 10:16:26;;;;;;;2.20;2.00;;;16.20;99.90;;;;;;5039696;28;20407;-82
2021/05/15 10:18:58;;;;;;;2.23;2.03;;;16.50;99.90;;;;;;4945283;29;20423;-83
2021/05/15 10:21:27;;;;;;;2.13;1.40;;;16.30;99.90;;;;;;4966392;28;21029;-82
2021/05/15 10:23:53;;;;;;;1.93;1.50;;;16.60;99.90;;;;;;4964430;28;20414;-83
2021/05/15 10:26:24;;;;;;;3.90;1.50;;;16.70;99.90;;;;;;4980976;28;20409;-83
2021/05/15 10:29:05;;;;;;;2.57;1.50;;;16.60;99.90;;;;;;4978392;28;20187;-83
2021/05/15 10:31:41;;;;;;;3.23;1.40;;;16.70;99.90;;;;;;4978578;28;20418;-83
2021/05/15 10:34:07;;;;;;;1.47;1.37;;;16.70;99.90;;;;;;4964244;28;20409;-83
2021/05/15 10:36:52;;;;;;;2.13;1.63;;;16.80;99.90;;;;;;4985224;28;20414;-83
2021/05/15 10:39:30;;;;;;;1.30;1.20;;;16.30;99.90;;;;;;4953971;28;20419;-83
2021/05/15 10:42:02;;;;;;;2.10;1.93;;;17.10;99.90;;;;;;5020069;28;20439;-83
2021/05/15 10:44:43;;;;;;;1.80;1.70;;;17.30;99.90;;;;;;5047257;28;20394;-83
2021/05/15 10:47:10;;;;;;;1.80;1.70;;;17.30;99.90;;;;;;5079566;28;20488;-82
2021/05/15 10:49:39;;;;;;;1.70;1.60;;;17.30;99.90;;;;;;5099712;28;20396;-83
2021/05/15 10:52:11;;;;;;;6.80;1.77;;;16.30;99.90;;;;;;5043471;28;20537;-83
2021/05/15 10:54:41;;;;;;;1.70;1.60;;;16.00;99.90;;;;;;5042671;28;20901;-82
2021/05/15 10:57:09;;;;;;;1.60;1.50;;;16.40;99.90;;;;;;5041967;28;20403;-83
2021/05/15 10:59:37;;;;;;;1.43;1.33;;;16.60;99.90;;;;;;5057785;28;20433;-82
2021/05/15 11:02:13;;;;;;;1.83;1.60;;;16.10;99.90;;;;;;5059201;28;20450;-83
2021/05/15 11:04:51;;;;;;;1.87;1.40;;;17.00;99.90;;;;;;5059394;28;20968;-82
2021/05/15 11:07:20;;;;;;;2.17;1.60;;;16.40;99.90;;;;;;5040713;28;20497;-83
2021/05/15 11:10:02;;;;;;;1.40;1.30;;;16.70;99.90;;;;;;5057006;28;20509;-83
2021/05/15 11:12:47;;;;;;;1.70;1.60;;;16.60;99.90;;;;;;5057886;28;20421;-83
2021/05/15 11:15:19;;;;;;;1.70;1.60;;;16.80;99.90;;;;;;5027355;28;20486;-82
2021/05/15 11:17:58;;;;;;;2.07;1.60;;;16.80;99.90;;;;;;5026627;28;20547;-81
2021/05/15 11:20:25;;;;;;;1.53;1.43;;;16.80;99.90;;;;;;5040449;28;20505;-83
2021/05/15 11:22:53;;;;;;;2.30;1.57;;;16.60;99.90;;;;;;5083304;28;20403;-83
2021/05/15 11:25:27;;;;;;;1.83;1.50;;;16.20;99.90;;;;;;5102109;28;20915;-83
2021/05/15 11:27:58;;;;;;;1.50;1.40;;;16.10;99.90;;;;;;5119504;28;20408;-82
2021/05/15 11:30:31;;;;;;;2.27;1.30;;;16.10;99.90;;;;;;5101756;28;20786;-83
2021/05/15 11:33:03;;;;;;;1.43;1.33;;;16.00;99.90;;;;;;5119082;28;20419;-83
2021/05/15 11:35:40;;;;;;;1.23;1.13;;;16.00;99.90;;;;;;5118980;28;20577;-83
2021/05/15 11:38:10;;;;;;;1.40;1.20;;;15.40;99.90;;;;;;5119235;28;20398;-80
2021/05/15 11:40:39;;;;;;;2.13;1.90;;;14.30;99.90;;;;;;5100803;28;20463;-81
2021/05/15 11:43:10;;;;;;;1.20;1.10;;;14.30;99.90;;;;;;5118887;28;20731;-83
2021/05/15 11:45:37;;;;;;;1.10;1.00;;;14.00;99.90;;;;;;5095623;28;20535;-84
2021/05/15 11:48:30;;;;;;;1.20;1.00;;;13.50;99.90;;;;;;5063530;28;20405;-82
2021/05/15 11:51:11;;;;;;;1.03;0.93;;;14.20;99.90;;;;;;5069279;28;20468;-82
2021/05/15 11:53:39;;;;;;;1.40;1.20;;;15.00;99.90;;;;;;5099192;28;20518;-82
2021/05/15 11:56:14;;;;;;;1.93;1.63;;;15.90;99.90;;;;;;5096693;28;20439;-82
2021/05/15 11:58:49;;;;;;;1.10;1.00;;;16.60;99.90;;;;;;5097324;28;20487;-82
2021/05/15 12:01:18;;;;;;;2.20;1.20;;;16.00;99.90;;;;;;5095852;28;20456;-81
2021/05/15 12:03:46;;;;;;;1.10;1.00;;;16.00;99.90;;;;;;5079508;28;20384;-81
2021/05/15 12:06:14;;;;;;;1.10;1.00;;;15.20;99.90;;;;;;5097325;28;20468;-83
2021/05/15 12:08:40;;;;;;;1.93;1.00;;;15.30;99.90;;;;;;5096527;28;20769;-82
2021/05/15 12:11:07;;;;;;;1.10;1.00;;;15.60;99.90;;;;;;5096028;28;20408;-82
2021/05/15 12:13:33;;;;;;;1.10;1.00;;;15.90;99.90;;;;;;5095480;28;20427;-83
2021/05/15 12:16:03;;;;;;;1.10;1.00;;;16.70;99.90;;;;;;5084123;28;20404;-83
2021/05/15 12:18:30;;;;;;;1.10;1.00;;;16.80;99.90;;;;;;5101737;28;20266;-83
2021/05/15 12:20:56;;;;;;;2.17;1.23;;;16.30;99.90;;;;;;5118058;28;20443;-81
2021/05/15 12:23:25;;;;;;;1.20;1.10;;;16.50;99.90;;;;;;5118584;28;20825;-83
2021/05/15 12:26:07;;;;;;;4.30;3.10;;;16.70;99.90;;;;;;5119035;28;20162;-82
2021/05/15 12:28:47;;;;;;;1.67;1.57;;;16.80;99.90;;;;;;5099964;28;20895;-83
2021/05/15 12:31:34;;;;;;;1.87;1.73;;;17.10;99.90;;;;;;5055728;28;20442;-84
2021/05/15 12:34:01;;;;;;;1.20;1.10;;;16.60;99.90;;;;;;5055932;28;20394;-82
2021/05/15 12:36:34;;;;;;;1.90;1.40;;;16.60;99.90;;;;;;5055051;28;20941;-82
2021/05/15 12:39:04;;;;;;;1.23;1.13;;;16.90;99.90;;;;;;5038060;28;20471;-82
2021/05/15 12:41:37;;;;;;;1.50;1.40;;;16.80;99.90;;;;;;5056318;28;20446;-82
2021/05/15 12:44:09;;;;;;;3.07;2.50;;;17.00;99.90;;;;;;5054984;28;20395;-83
2021/05/15 12:46:39;;;;;;;1.80;1.30;;;16.70;99.90;;;;;;5052295;28;20560;-83
2021/05/15 12:49:08;;;;;;;1.93;1.60;;;16.90;99.90;;;;;;5075757;28;20845;-83
2021/05/15 12:51:38;;;;;;;2.70;1.10;;;17.20;99.90;;;;;;5059310;28;20428;-83
2021/05/15 12:54:13;;;;;;;1.70;1.10;;;17.40;99.90;;;;;;5075225;28;20396;-83
2021/05/15 12:56:39;;;;;;;1.20;1.10;;;17.50;99.90;;;;;;5059568;28;20405;-84